createdAt,value
2022-08-24T00:00:13.073Z,5.88
2022-08-24T00:02:40.725Z,9.77
2022-08-24T00:05:12.717Z,6.00
2022-08-24T00:07:42.553Z,7.57
2022-08-24T00:10:11.273Z,5.15
2022-08-24T00:12:38.849Z,4.07
2022-08-24T00:15:07.624Z,5.78
2022-08-24T00:17:35.543Z,5.68
2022-08-24T00:20:03.410Z,9.40
2022-08-24T00:22:30.932Z,4.60
2022-08-24T00:24:58.456Z,4.30
2022-08-24T00:27:26.663Z,3.45
2022-08-24T00:29:54.699Z,4.63
2022-08-24T00:32:22.650Z,5.75
2022-08-24T00:34:59.314Z,5.70
2022-08-24T00:37:28.764Z,7.05
2022-08-24T00:39:57.226Z,10.88
2022-08-24T00:42:25.772Z,4.20
2022-08-24T00:44:53.516Z,4.43
2022-08-24T00:47:23.276Z,3.45
2022-08-24T00:49:50.888Z,9.18
2022-08-24T00:52:21.394Z,6.47
2022-08-24T00:54:53.094Z,3.35
2022-08-24T00:57:23.010Z,8.52
2022-08-24T00:59:56.477Z,4.65
2022-08-24T01:02:25.844Z,5.13
2022-08-24T01:04:56.358Z,6.30
2022-08-24T01:07:25.097Z,7.13
2022-08-24T01:09:53.530Z,4.63
2022-08-24T01:12:21.465Z,7.75
2022-08-24T01:14:49.688Z,4.70
2022-08-24T01:17:39.190Z,6.55
2022-08-24T01:20:09.464Z,11.13
2022-08-24T01:22:55.325Z,6.28
2022-08-24T01:25:24.465Z,4.20
2022-08-24T01:27:52.695Z,9.77
2022-08-24T01:30:20.624Z,7.22
2022-08-24T01:32:58.261Z,9.00
2022-08-24T01:35:26.026Z,3.50
2022-08-24T01:37:56.032Z,5.20
2022-08-24T01:40:27.177Z,6.97
2022-08-24T01:42:54.899Z,5.07
2022-08-24T01:45:22.546Z,3.75
2022-08-24T01:47:50.114Z,5.30
2022-08-24T01:50:17.635Z,4.40
2022-08-24T01:53:14.323Z,5.40
2022-08-24T01:55:33.054Z,3.67
2022-08-24T01:58:00.896Z,7.88
2022-08-24T02:00:30.357Z,3.10
2022-08-24T02:02:57.951Z,6.30
2022-08-24T02:05:25.708Z,9.40
2022-08-24T02:07:53.639Z,18.75
2022-08-24T02:10:23.619Z,4.80
2022-08-24T02:12:59.373Z,5.97
2022-08-24T02:15:36.606Z,5.55
2022-08-24T02:18:04.683Z,3.40
2022-08-24T02:20:32.497Z,4.57
2022-08-24T02:23:00.005Z,4.15
2022-08-24T02:25:30.637Z,3.08
2022-08-24T02:27:59.667Z,6.15
2022-08-24T02:30:27.628Z,6.72
2022-08-24T02:32:55.994Z,4.35
2022-08-24T02:35:23.599Z,6.95
2022-08-24T02:37:52.371Z,2.10
2022-08-24T02:40:20.220Z,4.10
2022-08-24T02:42:48.232Z,2.65
2022-08-24T02:45:15.867Z,4.82
2022-08-24T02:47:45.333Z,1.70
2022-08-24T02:50:14.609Z,5.25
2022-08-24T02:52:42.842Z,3.08
2022-08-24T02:55:12.298Z,2.50
2022-08-24T02:57:40.057Z,5.97
2022-08-24T03:00:10.481Z,4.22
2022-08-24T03:02:43.541Z,6.18
2022-08-24T03:05:11.176Z,3.72
2022-08-24T03:07:38.693Z,5.22
2022-08-24T03:10:06.988Z,3.85
2022-08-24T03:12:35.030Z,3.47
2022-08-24T03:15:03.759Z,3.90
2022-08-24T03:17:33.714Z,5.40
2022-08-24T03:20:02.055Z,4.68
2022-08-24T03:22:29.937Z,5.43
2022-08-24T03:24:57.923Z,7.57
2022-08-24T03:27:25.593Z,4.93
2022-08-24T03:29:53.118Z,3.85
2022-08-24T03:32:22.158Z,4.50
2022-08-24T03:34:50.741Z,5.30
2022-08-24T03:37:19.130Z,7.22
2022-08-24T03:39:47.880Z,4.32
2022-08-24T03:42:15.934Z,6.50
2022-08-24T03:44:43.750Z,5.90
2022-08-24T03:47:11.424Z,6.25
2022-08-24T03:49:39.688Z,6.82
2022-08-24T03:52:07.605Z,4.32
2022-08-24T03:54:35.350Z,4.32
2022-08-24T03:57:02.904Z,3.28
2022-08-24T03:59:31.736Z,4.45
2022-08-24T04:01:59.673Z,6.20
2022-08-24T04:04:29.587Z,4.70
2022-08-24T04:06:57.925Z,3.15
2022-08-24T04:09:26.883Z,10.35
2022-08-24T04:11:57.128Z,3.72
2022-08-24T04:14:27.982Z,3.78
2022-08-24T04:17:12.759Z,4.38
2022-08-24T04:19:57.986Z,7.93
2022-08-24T04:22:36.474Z,4.82
2022-08-24T04:25:09.570Z,4.82
2022-08-24T04:27:39.490Z,2.92
2022-08-24T04:30:08.495Z,2.55
2022-08-24T04:32:52.171Z,3.50
2022-08-24T04:35:20.449Z,7.47
2022-08-24T04:37:47.989Z,6.28
2022-08-24T04:40:15.935Z,4.45
2022-08-24T04:42:48.518Z,4.95
2022-08-24T04:45:16.570Z,3.55
2022-08-24T04:47:47.069Z,3.70
2022-08-24T04:50:14.677Z,2.88
2022-08-24T04:52:43.648Z,7.38
2022-08-24T04:55:13.899Z,3.08
2022-08-24T04:57:41.464Z,5.78
2022-08-24T05:00:10.718Z,4.30
2022-08-24T05:02:44.870Z,5.80
2022-08-24T05:05:13.777Z,5.80
2022-08-24T05:07:41.357Z,5.50
2022-08-24T05:10:11.219Z,3.65
2022-08-24T05:12:38.915Z,4.55
2022-08-24T05:15:13.068Z,3.88
2022-08-24T05:17:51.213Z,8.55
2022-08-24T05:22:47.005Z,11.38
2022-08-24T05:25:15.254Z,8.10
2022-08-24T05:27:42.842Z,11.25
2022-08-24T05:30:11.273Z,12.07
2022-08-24T05:32:39.273Z,8.98
2022-08-24T05:35:08.133Z,10.88
2022-08-24T05:37:36.680Z,6.85
2022-08-24T05:40:15.858Z,11.15
2022-08-24T05:42:46.869Z,10.15
2022-08-24T05:45:15.195Z,9.80
2022-08-24T05:47:43.771Z,12.82
2022-08-24T05:50:27.683Z,8.93
2022-08-24T05:52:55.178Z,18.73
2022-08-24T05:55:22.667Z,10.88
2022-08-24T05:57:50.605Z,12.82
2022-08-24T06:00:23.353Z,8.93
2022-08-24T06:02:53.082Z,10.57
2022-08-24T06:05:22.313Z,7.40
2022-08-24T06:07:50.244Z,7.72
2022-08-24T06:10:35.848Z,7.60
2022-08-24T06:13:05.557Z,11.65
2022-08-24T06:15:33.707Z,10.05
2022-08-24T06:18:01.997Z,8.43
2022-08-24T06:20:29.765Z,7.65
2022-08-24T06:22:58.204Z,8.23
2022-08-24T06:25:51.866Z,8.32
2022-08-24T06:30:46.866Z,12.30
2022-08-24T06:33:26.201Z,9.48
2022-08-24T06:35:55.394Z,10.68
2022-08-24T06:38:24.198Z,11.52
2022-08-24T06:40:53.379Z,11.98
2022-08-24T06:43:21.529Z,12.38
2022-08-24T06:45:52.486Z,13.70
2022-08-24T06:48:23.855Z,9.07
2022-08-24T06:50:52.740Z,7.63
2022-08-24T06:53:20.654Z,6.63
2022-08-24T06:55:57.850Z,14.30
2022-08-24T06:58:27.616Z,15.35
2022-08-24T07:00:59.483Z,9.75
2022-08-24T07:03:27.179Z,9.05
2022-08-24T07:06:07.889Z,7.63
2022-08-24T07:08:42.376Z,13.50
2022-08-24T07:11:15.122Z,14.40
2022-08-24T07:13:43.393Z,9.82
2022-08-24T07:16:11.062Z,12.63
2022-08-24T07:18:41.009Z,12.45
2022-08-24T07:21:09.762Z,10.30
2022-08-24T07:23:43.720Z,8.48
2022-08-24T07:26:20.937Z,31.98
2022-08-24T07:29:07.170Z,11.40
2022-08-24T07:31:41.209Z,18.42
2022-08-24T07:34:23.151Z,15.65
2022-08-24T07:36:52.458Z,25.55
2022-08-24T07:39:20.304Z,11.43
2022-08-24T07:42:11.455Z,20.13
2022-08-24T07:44:36.041Z,15.52
2022-08-24T07:47:21.118Z,11.27
2022-08-24T07:49:52.395Z,11.38
2022-08-24T07:52:20.694Z,13.07
2022-08-24T07:54:48.249Z,10.35
2022-08-24T07:57:15.923Z,11.45
2022-08-24T07:59:43.853Z,13.05
2022-08-24T08:02:11.966Z,14.85
2022-08-24T08:04:40.418Z,9.95
2022-08-24T08:07:08.365Z,15.00
2022-08-24T08:09:38.301Z,17.27
2022-08-24T08:12:06.662Z,20.65
2022-08-24T08:14:34.748Z,30.27
2022-08-24T08:17:02.618Z,29.58
2022-08-24T08:19:30.420Z,21.15
2022-08-24T08:22:16.656Z,26.45
2022-08-24T08:25:05.533Z,14.95
2022-08-24T08:27:33.180Z,18.83
2022-08-24T08:30:01.850Z,12.85
2022-08-24T08:32:31.428Z,12.27
2022-08-24T08:35:02.112Z,18.50
2022-08-24T08:37:33.744Z,17.77
2022-08-24T08:40:01.664Z,29.15
2022-08-24T08:42:47.629Z,14.50
2022-08-24T08:45:15.297Z,14.55
2022-08-24T08:50:42.857Z,20.33
2022-08-24T08:53:36.559Z,12.63
2022-08-24T08:56:10.021Z,16.63
2022-08-24T08:58:57.072Z,12.73
2022-08-24T09:02:03.552Z,36.10
2022-08-24T09:05:05.674Z,12.73
2022-08-24T09:07:33.989Z,34.10
2022-08-24T09:10:06.124Z,30.67
2022-08-24T09:12:44.589Z,27.58
2022-08-24T09:15:37.581Z,31.48
2022-08-24T09:18:14.094Z,34.00
2022-08-24T09:20:42.081Z,25.02
2022-08-24T09:23:29.686Z,24.45
2022-08-24T09:26:20.815Z,20.17
2022-08-24T09:28:52.598Z,20.63
2022-08-24T09:31:20.451Z,18.25
2022-08-24T09:33:54.791Z,12.43
2022-08-24T09:36:45.492Z,17.67
2022-08-24T09:39:20.297Z,16.42
2022-08-24T09:41:53.542Z,32.30
2022-08-24T09:44:35.886Z,20.50
2022-08-24T09:47:03.851Z,12.25
2022-08-24T09:49:50.536Z,52.60
2022-08-24T09:52:18.884Z,81.05
2022-08-24T09:55:02.170Z,42.85
2022-08-24T09:58:09.659Z,40.35
2022-08-24T10:00:41.055Z,33.85
2022-08-24T10:03:41.083Z,31.90
2022-08-24T10:06:16.812Z,27.67
2022-08-24T10:08:46.538Z,21.92
2022-08-24T10:11:22.969Z,27.70
2022-08-24T10:14:02.411Z,24.48
2022-08-24T10:16:42.421Z,21.58
2022-08-24T10:19:29.176Z,31.00
2022-08-24T10:22:20.200Z,24.45
2022-08-24T10:24:48.336Z,25.48
2022-08-24T10:27:30.740Z,26.15
2022-08-24T10:30:09.705Z,21.70
2022-08-24T10:32:37.614Z,42.38
2022-08-24T10:35:21.620Z,23.98
2022-08-24T10:37:49.829Z,14.32
2022-08-24T10:40:18.531Z,26.23
2022-08-24T10:43:26.198Z,22.75
2022-08-24T10:46:10.225Z,17.30
2022-08-24T10:48:46.733Z,32.10
2022-08-24T10:51:20.461Z,25.83
2022-08-24T10:53:49.599Z,10.32
2022-08-24T10:56:19.627Z,61.88
2022-08-24T10:58:53.260Z,16.75
2022-08-24T11:01:23.430Z,19.98
2022-08-24T11:03:53.717Z,24.02
2022-08-24T11:06:22.097Z,18.02
2022-08-24T11:08:54.193Z,8.57
2022-08-24T11:11:26.450Z,13.32
2022-08-24T11:14:00.728Z,14.30
2022-08-24T11:16:33.791Z,16.40
2022-08-24T11:19:02.821Z,16.60
2022-08-24T11:21:51.978Z,11.13
2022-08-24T11:24:19.501Z,16.17
2022-08-24T11:26:53.508Z,19.40
2022-08-24T11:29:23.360Z,17.50
2022-08-24T11:31:52.909Z,61.22
2022-08-24T11:34:31.850Z,22.77
2022-08-24T11:36:59.738Z,23.00
2022-08-24T11:39:35.419Z,26.17
2022-08-24T11:42:03.633Z,39.42
2022-08-24T11:44:50.480Z,20.40
2022-08-24T11:47:30.933Z,18.02
2022-08-24T11:50:07.430Z,23.33
2022-08-24T11:52:49.193Z,22.30
2022-08-24T11:55:19.764Z,15.65
2022-08-24T11:57:52.130Z,34.33
2022-08-24T12:00:21.717Z,23.05
2022-08-24T12:03:00.734Z,14.88
2022-08-24T12:05:47.952Z,23.30
2022-08-24T12:08:21.310Z,14.68
2022-08-24T12:10:59.479Z,11.00
2022-08-24T12:13:42.607Z,13.05
2022-08-24T12:16:38.307Z,10.13
2022-08-24T12:19:15.073Z,10.70
2022-08-24T12:21:48.488Z,13.23
2022-08-24T12:24:19.455Z,13.02
2022-08-24T12:26:49.600Z,10.50
2022-08-24T12:29:21.771Z,8.23
2022-08-24T12:31:59.184Z,12.63
2022-08-24T12:34:40.631Z,11.88
2022-08-24T12:37:16.510Z,10.57
2022-08-24T12:39:50.698Z,12.60
2022-08-24T12:42:22.784Z,16.48
2022-08-24T12:44:50.315Z,7.90
2022-08-24T12:47:26.080Z,7.93
2022-08-24T12:49:56.930Z,13.50
2022-08-24T12:52:43.393Z,7.45
2022-08-24T12:55:10.930Z,11.10
2022-08-24T12:57:54.743Z,11.93
2022-08-24T13:00:28.841Z,14.95
2022-08-24T13:03:05.556Z,14.27
2022-08-24T13:05:41.513Z,12.82
2022-08-24T13:08:15.578Z,26.63
2022-08-24T13:10:45.974Z,43.55
2022-08-24T13:13:16.682Z,41.35
2022-08-24T13:15:52.351Z,45.53
2022-08-24T13:18:19.919Z,53.58
2022-08-24T13:20:50.373Z,51.45
2022-08-24T13:23:19.605Z,36.92
2022-08-24T13:25:50.721Z,44.88
2022-08-24T13:28:25.600Z,37.70
2022-08-24T13:31:05.952Z,38.55
2022-08-24T13:33:34.960Z,32.03
2022-08-24T13:36:22.999Z,46.42
2022-08-24T13:38:56.290Z,37.92
2022-08-24T13:41:42.266Z,37.72
2022-08-24T13:44:21.333Z,32.63
2022-08-24T13:46:53.950Z,29.75
2022-08-24T13:49:40.029Z,36.80
2022-08-24T13:52:16.844Z,27.27
2022-08-24T13:55:07.840Z,29.05
2022-08-24T13:57:50.977Z,28.75
2022-08-24T14:00:38.007Z,24.50
2022-08-24T14:03:23.726Z,29.42
2022-08-24T14:05:57.365Z,25.27
2022-08-24T14:08:34.269Z,27.55
2022-08-24T14:11:01.787Z,22.42
2022-08-24T14:13:32.422Z,22.50
2022-08-24T14:16:22.997Z,29.45
2022-08-24T14:19:14.334Z,32.22
2022-08-24T14:21:45.933Z,21.13
2022-08-24T14:24:28.509Z,18.60
2022-08-24T14:27:01.269Z,18.20
2022-08-24T14:29:36.731Z,16.50
2022-08-24T14:32:12.248Z,22.50
2022-08-24T14:37:14.476Z,21.40
2022-08-24T14:39:41.913Z,18.17
2022-08-24T14:42:16.847Z,15.90
2022-08-24T14:44:56.765Z,21.67
2022-08-24T14:47:33.899Z,21.50
2022-08-24T14:50:17.338Z,15.63
2022-08-24T14:53:03.652Z,22.95
2022-08-24T14:55:35.229Z,19.60
2022-08-24T14:58:18.665Z,11.95
2022-08-24T15:01:06.444Z,17.20
2022-08-24T15:03:43.248Z,19.63
2022-08-24T15:06:27.257Z,15.05
2022-08-24T15:09:06.832Z,18.38
2022-08-24T15:11:36.936Z,15.68
2022-08-24T15:14:22.279Z,13.45
2022-08-24T15:17:13.449Z,13.00
2022-08-24T15:19:59.802Z,13.05
2022-08-24T15:22:36.645Z,14.15
2022-08-24T15:25:22.966Z,15.80
2022-08-24T15:27:54.607Z,14.13
2022-08-24T15:30:32.910Z,18.15
2022-08-24T15:33:19.800Z,34.20
2022-08-24T15:35:51.992Z,34.58
2022-08-24T15:38:27.005Z,28.30
2022-08-24T15:41:06.315Z,30.98
2022-08-24T15:43:36.482Z,20.30
2022-08-24T15:46:04.397Z,22.80
2022-08-24T15:48:32.226Z,21.73
2022-08-24T15:51:01.221Z,22.20
2022-08-24T15:53:42.501Z,25.52
2022-08-24T15:56:15.947Z,27.42
2022-08-24T15:58:43.556Z,17.08
2022-08-24T16:01:29.525Z,17.50
2022-08-24T16:03:58.443Z,15.30
2022-08-24T16:06:26.141Z,12.35
2022-08-24T16:09:04.552Z,15.27
2022-08-24T16:11:32.019Z,14.35
2022-08-24T16:13:59.671Z,16.60
2022-08-24T16:16:33.912Z,13.98
2022-08-24T16:19:08.558Z,17.42
2022-08-24T16:21:51.472Z,14.27
2022-08-24T16:24:22.149Z,12.15
2022-08-24T16:26:49.654Z,12.60
2022-08-24T16:29:34.070Z,14.57
2022-08-24T16:32:26.705Z,16.42
2022-08-24T16:35:02.101Z,11.68
2022-08-24T16:37:29.618Z,11.80
2022-08-24T16:39:57.187Z,11.02
2022-08-24T16:42:27.096Z,23.90
2022-08-24T16:44:54.695Z,17.83
2022-08-24T16:47:22.999Z,18.13
2022-08-24T16:49:51.697Z,10.45
2022-08-24T16:52:19.831Z,11.20
2022-08-24T16:54:47.716Z,15.07
2022-08-24T16:57:17.069Z,8.95
2022-08-24T16:59:45.698Z,13.95
2022-08-24T17:02:13.969Z,11.57
2022-08-24T17:04:42.800Z,8.85
2022-08-24T17:07:12.770Z,9.30
2022-08-24T17:09:41.761Z,8.57
2022-08-24T17:12:09.843Z,7.07
2022-08-24T17:14:39.640Z,12.68
2022-08-24T17:17:09.125Z,9.75
2022-08-24T17:19:37.290Z,8.48
2022-08-24T17:22:05.445Z,8.95
2022-08-24T17:24:33.634Z,9.93
2022-08-24T17:27:01.296Z,8.98
2022-08-24T17:29:29.076Z,13.90
2022-08-24T17:31:57.178Z,7.95
2022-08-24T17:34:24.955Z,12.32
2022-08-24T17:36:54.307Z,11.00
2022-08-24T17:39:24.166Z,9.13
2022-08-24T17:41:55.563Z,9.63
2022-08-24T17:44:25.991Z,22.17
2022-08-24T17:46:54.857Z,10.15
2022-08-24T17:49:22.421Z,16.55
2022-08-24T17:51:50.073Z,19.02
2022-08-24T17:54:19.691Z,16.30
2022-08-24T17:56:49.548Z,14.57
2022-08-24T17:59:22.984Z,15.13
2022-08-24T18:01:52.231Z,10.70
2022-08-24T18:04:21.089Z,16.42
2022-08-24T18:06:49.639Z,14.90
2022-08-24T18:09:19.441Z,17.48
2022-08-24T18:11:47.090Z,18.08
2022-08-24T18:14:15.186Z,13.50
2022-08-24T18:16:42.763Z,18.67
2022-08-24T18:19:19.613Z,13.27
2022-08-24T18:21:50.563Z,10.05
2022-08-24T18:24:18.056Z,8.50
2022-08-24T18:26:47.816Z,16.33
2022-08-24T18:29:21.514Z,13.13
2022-08-24T18:31:49.652Z,6.97
2022-08-24T18:34:21.286Z,16.70
2022-08-24T18:36:49.442Z,16.13
2022-08-24T18:39:17.080Z,9.88
2022-08-24T18:41:49.263Z,8.15
2022-08-24T18:44:21.345Z,16.98
2022-08-24T18:46:49.242Z,12.85
2022-08-24T18:49:18.068Z,12.00
2022-08-24T18:51:48.242Z,9.50
2022-08-24T18:54:18.535Z,6.97
2022-08-24T18:56:46.309Z,8.82
2022-08-24T18:59:15.229Z,7.88
2022-08-24T19:02:06.007Z,11.02
2022-08-24T19:04:33.709Z,10.20
2022-08-24T19:07:01.554Z,7.95
2022-08-24T19:09:33.978Z,7.63
2022-08-24T19:12:02.616Z,8.52
2022-08-24T19:14:30.201Z,7.68
2022-08-24T19:16:57.911Z,6.65
2022-08-24T19:19:25.413Z,13.48
2022-08-24T19:21:53.350Z,8.02
2022-08-24T19:24:24.364Z,6.18
2022-08-24T19:26:52.235Z,6.88
2022-08-24T19:29:38.847Z,11.30
2022-08-24T19:32:10.074Z,8.95
2022-08-24T19:34:47.742Z,10.10
2022-08-24T19:37:15.218Z,9.95
2022-08-24T19:39:42.713Z,8.50
2022-08-24T19:42:10.979Z,3.70
2022-08-24T19:44:57.480Z,8.18
2022-08-24T19:49:52.386Z,10.23
2022-08-24T19:52:20.447Z,9.05
2022-08-24T19:54:48.500Z,8.07
2022-08-24T19:57:31.543Z,10.57
2022-08-24T20:00:01.007Z,10.85
2022-08-24T20:02:28.624Z,12.13
2022-08-24T20:04:56.281Z,11.18
2022-08-24T20:07:23.747Z,12.85
2022-08-24T20:09:51.215Z,6.68
2022-08-24T20:12:18.783Z,10.55
2022-08-24T20:14:46.257Z,6.47
2022-08-24T20:17:13.822Z,7.88
2022-08-24T20:19:41.491Z,9.93
2022-08-24T20:22:13.438Z,5.80
2022-08-24T20:24:42.710Z,4.38
2022-08-24T20:27:12.998Z,8.70
2022-08-24T20:29:40.481Z,3.65
2022-08-24T20:32:07.944Z,4.07
2022-08-24T20:34:36.941Z,4.90
2022-08-24T20:37:04.815Z,6.38
2022-08-24T20:39:32.303Z,6.05
2022-08-24T20:42:00.169Z,6.57
2022-08-24T20:44:28.303Z,5.22
2022-08-24T20:46:56.017Z,5.22
2022-08-24T20:49:26.957Z,3.90
2022-08-24T20:51:54.500Z,5.85
2022-08-24T20:54:22.041Z,5.15
2022-08-24T20:56:50.177Z,6.13
2022-08-24T20:59:18.934Z,5.25
2022-08-24T21:01:47.330Z,3.92
2022-08-24T21:04:15.054Z,3.05
2022-08-24T21:06:43.366Z,8.55
2022-08-24T21:09:13.978Z,6.00
2022-08-24T21:11:43.336Z,2.97
2022-08-24T21:14:10.881Z,5.15
2022-08-24T21:16:41.962Z,17.35
2022-08-24T21:19:11.343Z,15.10
2022-08-24T21:21:42.313Z,21.60
2022-08-24T21:24:10.323Z,7.72
2022-08-24T21:26:38.034Z,16.02
2022-08-24T21:29:06.773Z,8.80
2022-08-24T21:31:34.577Z,13.15
2022-08-24T21:34:20.690Z,8.75
2022-08-24T21:36:49.155Z,4.30
2022-08-24T21:39:16.822Z,3.90
2022-08-24T21:41:44.778Z,4.90
2022-08-24T21:44:12.284Z,6.20
2022-08-24T21:46:40.499Z,4.75
2022-08-24T21:49:08.904Z,5.75
2022-08-24T21:51:39.804Z,4.80
2022-08-24T21:54:07.312Z,6.03
2022-08-24T21:56:35.336Z,5.97
2022-08-24T21:59:03.259Z,11.02
2022-08-24T22:01:30.813Z,5.82
2022-08-24T22:03:58.508Z,7.93
2022-08-24T22:06:31.079Z,10.45
2022-08-24T22:08:59.216Z,4.65
2022-08-24T22:11:26.936Z,9.20
2022-08-24T22:13:55.606Z,6.10
2022-08-24T22:16:23.628Z,7.07
2022-08-24T22:18:51.348Z,13.65
2022-08-24T22:21:20.618Z,5.20
2022-08-24T22:23:48.399Z,4.72
2022-08-24T22:26:16.097Z,6.30
2022-08-24T22:28:43.779Z,4.80
2022-08-24T22:31:23.576Z,4.18
2022-08-24T22:33:51.527Z,9.90
2022-08-24T22:36:19.086Z,10.98
2022-08-24T22:38:46.861Z,18.95
2022-08-24T22:41:14.571Z,17.02
2022-08-24T22:44:00.612Z,14.80
2022-08-24T22:46:28.213Z,11.80
2022-08-24T22:48:55.813Z,10.35
2022-08-24T22:51:23.929Z,6.97
2022-08-24T22:53:51.703Z,11.52
2022-08-24T22:56:23.733Z,12.25
2022-08-24T22:58:51.916Z,12.20
2022-08-24T23:01:20.960Z,5.15
2022-08-24T23:03:49.825Z,10.07
2022-08-24T23:06:17.693Z,5.18
2022-08-24T23:08:45.530Z,8.35
2022-08-24T23:11:13.783Z,6.68
2022-08-24T23:13:41.453Z,8.20
2022-08-24T23:16:10.307Z,5.78
2022-08-24T23:18:56.729Z,8.20
2022-08-24T23:21:24.760Z,11.27
2022-08-24T23:23:55.808Z,5.82
2022-08-24T23:26:23.477Z,6.28
2022-08-24T23:28:51.361Z,3.78
2022-08-24T23:31:20.249Z,7.65
2022-08-24T23:33:48.037Z,9.23
2022-08-24T23:36:18.060Z,6.13
2022-08-24T23:38:45.603Z,3.97
2022-08-24T23:41:14.477Z,8.40
2022-08-24T23:43:42.754Z,5.10
2022-08-24T23:46:10.992Z,9.45
2022-08-24T23:48:40.537Z,9.65
2022-08-24T23:51:09.054Z,6.18
2022-08-24T23:53:36.584Z,5.88
2022-08-24T23:56:10.881Z,4.18
2022-08-24T23:58:40.919Z,6.97
